sensor_id;sensor_type;location;lat;lon;timestamp;P1;durP1;ratioP1;P2;durP2;ratioP2
69161;SDS011;56269;51.738;21.652;2023-04-24T00:00:45;15.50;;;8.00;;
69161;SDS011;56269;51.738;21.652;2023-04-24T00:03:24;15.70;;;7.70;;
69161;SDS011;56269;51.738;21.652;2023-04-24T00:05:51;14.25;;;7.45;;
69161;SDS011;56269;51.738;21.652;2023-04-24T00:08:17;15.82;;;7.90;;
69161;SDS011;56269;51.738;21.652;2023-04-24T00:10:44;17.30;;;8.00;;
69161;SDS011;56269;51.738;21.652;2023-04-24T00:13:10;13.65;;;7.72;;
69161;SDS011;56269;51.738;21.652;2023-04-24T00:15:36;17.00;;;8.35;;
69161;SDS011;56269;51.738;21.652;2023-04-24T00:18:02;14.63;;;7.85;;
69161;SDS011;56269;51.738;21.652;2023-04-24T00:20:29;17.58;;;8.45;;
69161;SDS011;56269;51.738;21.652;2023-04-24T00:22:55;17.70;;;8.07;;
69161;SDS011;56269;51.738;21.652;2023-04-24T00:25:21;14.30;;;8.05;;
69161;SDS011;56269;51.738;21.652;2023-04-24T00:27:47;14.73;;;7.30;;
69161;SDS011;56269;51.738;21.652;2023-04-24T00:30:13;15.20;;;7.53;;
69161;SDS011;56269;51.738;21.652;2023-04-24T00:32:40;16.45;;;7.90;;
69161;SDS011;56269;51.738;21.652;2023-04-24T00:35:06;15.40;;;7.90;;
69161;SDS011;56269;51.738;21.652;2023-04-24T00:37:32;15.63;;;8.13;;
69161;SDS011;56269;51.738;21.652;2023-04-24T00:39:59;16.20;;;7.55;;
69161;SDS011;56269;51.738;21.652;2023-04-24T00:42:25;15.85;;;7.80;;
69161;SDS011;56269;51.738;21.652;2023-04-24T00:44:51;17.27;;;8.00;;
69161;SDS011;56269;51.738;21.652;2023-04-24T00:47:18;17.75;;;8.52;;
69161;SDS011;56269;51.738;21.652;2023-04-24T00:49:45;14.30;;;7.80;;
69161;SDS011;56269;51.738;21.652;2023-04-24T00:52:11;17.02;;;8.48;;
69161;SDS011;56269;51.738;21.652;2023-04-24T00:54:38;15.55;;;8.07;;
69161;SDS011;56269;51.738;21.652;2023-04-24T00:57:04;17.77;;;8.20;;
69161;SDS011;56269;51.738;21.652;2023-04-24T00:59:33;14.02;;;7.85;;
69161;SDS011;56269;51.738;21.652;2023-04-24T01:01:59;15.35;;;8.35;;
69161;SDS011;56269;51.738;21.652;2023-04-24T01:04:25;15.68;;;8.30;;
69161;SDS011;56269;51.738;21.652;2023-04-24T01:06:54;16.08;;;8.02;;
69161;SDS011;56269;51.738;21.652;2023-04-24T01:09:22;14.87;;;8.33;;
69161;SDS011;56269;51.738;21.652;2023-04-24T01:11:49;15.30;;;8.35;;
69161;SDS011;56269;51.738;21.652;2023-04-24T01:14:15;16.55;;;8.88;;
69161;SDS011;56269;51.738;21.652;2023-04-24T01:16:41;16.20;;;8.30;;
69161;SDS011;56269;51.738;21.652;2023-04-24T01:19:08;14.48;;;8.00;;
69161;SDS011;56269;51.738;21.652;2023-04-24T01:21:37;16.73;;;7.77;;
69161;SDS011;56269;51.738;21.652;2023-04-24T01:24:04;16.95;;;8.43;;
69161;SDS011;56269;51.738;21.652;2023-04-24T01:26:31;13.98;;;7.70;;
69161;SDS011;56269;51.738;21.652;2023-04-24T01:28:58;18.80;;;8.05;;
69161;SDS011;56269;51.738;21.652;2023-04-24T01:31:24;17.67;;;9.32;;
69161;SDS011;56269;51.738;21.652;2023-04-24T01:33:50;17.23;;;8.80;;
69161;SDS011;56269;51.738;21.652;2023-04-24T01:36:17;19.33;;;9.02;;
69161;SDS011;56269;51.738;21.652;2023-04-24T01:38:44;17.50;;;9.75;;
69161;SDS011;56269;51.738;21.652;2023-04-24T01:41:10;17.00;;;8.88;;
69161;SDS011;56269;51.738;21.652;2023-04-24T01:43:40;20.20;;;9.40;;
69161;SDS011;56269;51.738;21.652;2023-04-24T01:46:06;19.37;;;9.17;;
69161;SDS011;56269;51.738;21.652;2023-04-24T01:48:33;18.58;;;9.15;;
69161;SDS011;56269;51.738;21.652;2023-04-24T01:50:59;19.23;;;9.27;;
69161;SDS011;56269;51.738;21.652;2023-04-24T01:53:25;18.73;;;8.80;;
69161;SDS011;56269;51.738;21.652;2023-04-24T01:55:51;14.48;;;8.05;;
69161;SDS011;56269;51.738;21.652;2023-04-24T01:58:18;17.30;;;8.37;;
69161;SDS011;56269;51.738;21.652;2023-04-24T02:00:44;19.15;;;9.38;;
69161;SDS011;56269;51.738;21.652;2023-04-24T02:03:10;19.60;;;9.27;;
69161;SDS011;56269;51.738;21.652;2023-04-24T02:05:37;17.33;;;8.57;;
69161;SDS011;56269;51.738;21.652;2023-04-24T02:08:03;16.10;;;7.80;;
69161;SDS011;56269;51.738;21.652;2023-04-24T02:10:29;16.70;;;8.40;;
69161;SDS011;56269;51.738;21.652;2023-04-24T02:12:55;18.67;;;9.00;;
69161;SDS011;56269;51.738;21.652;2023-04-24T02:15:21;21.25;;;8.65;;
69161;SDS011;56269;51.738;21.652;2023-04-24T02:17:47;17.63;;;8.30;;
69161;SDS011;56269;51.738;21.652;2023-04-24T02:20:13;16.27;;;8.37;;
69161;SDS011;56269;51.738;21.652;2023-04-24T02:22:40;14.70;;;8.13;;
69161;SDS011;56269;51.738;21.652;2023-04-24T02:25:06;16.30;;;9.00;;
69161;SDS011;56269;51.738;21.652;2023-04-24T02:27:33;17.58;;;8.70;;
69161;SDS011;56269;51.738;21.652;2023-04-24T02:29:59;16.33;;;8.77;;
69161;SDS011;56269;51.738;21.652;2023-04-24T02:32:26;16.38;;;8.38;;
69161;SDS011;56269;51.738;21.652;2023-04-24T02:34:52;15.77;;;7.93;;
69161;SDS011;56269;51.738;21.652;2023-04-24T02:37:18;16.45;;;7.75;;
69161;SDS011;56269;51.738;21.652;2023-04-24T02:39:44;17.27;;;8.07;;
69161;SDS011;56269;51.738;21.652;2023-04-24T02:42:11;20.10;;;8.98;;
69161;SDS011;56269;51.738;21.652;2023-04-24T02:44:36;15.63;;;8.55;;
69161;SDS011;56269;51.738;21.652;2023-04-24T02:47:03;16.08;;;8.40;;
69161;SDS011;56269;51.738;21.652;2023-04-24T02:49:29;17.13;;;8.18;;
69161;SDS011;56269;51.738;21.652;2023-04-24T02:51:55;15.57;;;8.27;;
69161;SDS011;56269;51.738;21.652;2023-04-24T02:54:21;16.45;;;8.77;;
69161;SDS011;56269;51.738;21.652;2023-04-24T02:56:47;16.85;;;8.60;;
69161;SDS011;56269;51.738;21.652;2023-04-24T02:59:13;16.48;;;8.65;;
69161;SDS011;56269;51.738;21.652;2023-04-24T03:01:40;16.43;;;8.47;;
69161;SDS011;56269;51.738;21.652;2023-04-24T03:04:06;16.30;;;9.00;;
69161;SDS011;56269;51.738;21.652;2023-04-24T03:06:32;17.80;;;9.02;;
69161;SDS011;56269;51.738;21.652;2023-04-24T03:09:00;14.55;;;8.30;;
69161;SDS011;56269;51.738;21.652;2023-04-24T03:11:27;15.68;;;8.52;;
69161;SDS011;56269;51.738;21.652;2023-04-24T03:13:53;16.37;;;8.57;;
69161;SDS011;56269;51.738;21.652;2023-04-24T03:16:19;15.07;;;8.10;;
69161;SDS011;56269;51.738;21.652;2023-04-24T03:18:45;16.73;;;8.20;;
69161;SDS011;56269;51.738;21.652;2023-04-24T03:21:11;17.90;;;8.68;;
69161;SDS011;56269;51.738;21.652;2023-04-24T03:23:38;15.77;;;8.23;;
69161;SDS011;56269;51.738;21.652;2023-04-24T03:26:04;16.60;;;8.60;;
69161;SDS011;56269;51.738;21.652;2023-04-24T03:28:30;17.27;;;8.95;;
69161;SDS011;56269;51.738;21.652;2023-04-24T03:30:57;16.73;;;8.50;;
69161;SDS011;56269;51.738;21.652;2023-04-24T03:33:23;17.98;;;8.75;;
69161;SDS011;56269;51.738;21.652;2023-04-24T03:35:49;14.60;;;7.87;;
69161;SDS011;56269;51.738;21.652;2023-04-24T03:38:15;16.98;;;8.18;;
69161;SDS011;56269;51.738;21.652;2023-04-24T03:40:41;14.85;;;8.00;;
69161;SDS011;56269;51.738;21.652;2023-04-24T03:43:07;25.13;;;11.25;;
69161;SDS011;56269;51.738;21.652;2023-04-24T03:45:34;17.63;;;8.10;;
69161;SDS011;56269;51.738;21.652;2023-04-24T03:48:00;23.65;;;8.43;;
69161;SDS011;56269;51.738;21.652;2023-04-24T03:50:26;17.50;;;8.30;;
69161;SDS011;56269;51.738;21.652;2023-04-24T03:52:54;15.98;;;8.60;;
69161;SDS011;56269;51.738;21.652;2023-04-24T03:55:21;17.65;;;9.00;;
69161;SDS011;56269;51.738;21.652;2023-04-24T03:57:47;18.97;;;9.03;;
69161;SDS011;56269;51.738;21.652;2023-04-24T04:00:13;16.13;;;8.20;;
69161;SDS011;56269;51.738;21.652;2023-04-24T04:02:40;16.80;;;8.77;;
69161;SDS011;56269;51.738;21.652;2023-04-24T04:05:06;16.60;;;8.13;;
69161;SDS011;56269;51.738;21.652;2023-04-24T04:07:33;17.50;;;8.43;;
69161;SDS011;56269;51.738;21.652;2023-04-24T04:10:00;18.40;;;9.17;;
69161;SDS011;56269;51.738;21.652;2023-04-24T04:12:26;18.83;;;8.63;;
69161;SDS011;56269;51.738;21.652;2023-04-24T04:14:52;17.00;;;9.00;;
69161;SDS011;56269;51.738;21.652;2023-04-24T04:17:18;17.70;;;8.90;;
69161;SDS011;56269;51.738;21.652;2023-04-24T04:19:44;19.45;;;8.50;;
69161;SDS011;56269;51.738;21.652;2023-04-24T04:22:10;14.77;;;7.53;;
69161;SDS011;56269;51.738;21.652;2023-04-24T04:24:37;14.88;;;7.40;;
69161;SDS011;56269;51.738;21.652;2023-04-24T04:27:03;15.27;;;7.80;;
69161;SDS011;56269;51.738;21.652;2023-04-24T04:29:31;15.32;;;8.35;;
69161;SDS011;56269;51.738;21.652;2023-04-24T04:31:57;16.27;;;8.10;;
69161;SDS011;56269;51.738;21.652;2023-04-24T04:34:23;14.35;;;8.07;;
69161;SDS011;56269;51.738;21.652;2023-04-24T04:36:49;14.82;;;8.05;;
69161;SDS011;56269;51.738;21.652;2023-04-24T04:39:16;15.48;;;8.00;;
69161;SDS011;56269;51.738;21.652;2023-04-24T04:41:44;15.27;;;7.82;;
69161;SDS011;56269;51.738;21.652;2023-04-24T04:44:12;16.67;;;8.23;;
69161;SDS011;56269;51.738;21.652;2023-04-24T04:46:39;17.00;;;8.73;;
69161;SDS011;56269;51.738;21.652;2023-04-24T04:49:08;13.57;;;7.70;;
69161;SDS011;56269;51.738;21.652;2023-04-24T04:51:36;15.38;;;7.80;;
69161;SDS011;56269;51.738;21.652;2023-04-24T04:54:02;15.82;;;8.02;;
69161;SDS011;56269;51.738;21.652;2023-04-24T04:56:28;13.97;;;7.20;;
69161;SDS011;56269;51.738;21.652;2023-04-24T04:58:55;14.57;;;6.68;;
69161;SDS011;56269;51.738;21.652;2023-04-24T05:01:21;12.70;;;6.88;;
69161;SDS011;56269;51.738;21.652;2023-04-24T05:03:48;16.90;;;7.70;;
69161;SDS011;56269;51.738;21.652;2023-04-24T05:06:14;14.93;;;7.63;;
69161;SDS011;56269;51.738;21.652;2023-04-24T05:08:41;11.93;;;6.20;;
69161;SDS011;56269;51.738;21.652;2023-04-24T05:11:07;14.63;;;7.38;;
69161;SDS011;56269;51.738;21.652;2023-04-24T05:13:33;16.10;;;7.22;;
69161;SDS011;56269;51.738;21.652;2023-04-24T05:15:59;13.45;;;7.38;;
69161;SDS011;56269;51.738;21.652;2023-04-24T05:18:26;12.45;;;5.88;;
69161;SDS011;56269;51.738;21.652;2023-04-24T05:20:52;14.63;;;7.77;;
69161;SDS011;56269;51.738;21.652;2023-04-24T05:23:18;11.00;;;5.78;;
69161;SDS011;56269;51.738;21.652;2023-04-24T05:25:44;12.68;;;6.90;;
69161;SDS011;56269;51.738;21.652;2023-04-24T05:28:11;10.57;;;5.78;;
69161;SDS011;56269;51.738;21.652;2023-04-24T05:30:37;14.03;;;6.10;;
69161;SDS011;56269;51.738;21.652;2023-04-24T05:33:04;13.13;;;6.65;;
69161;SDS011;56269;51.738;21.652;2023-04-24T05:35:30;14.45;;;7.43;;
69161;SDS011;56269;51.738;21.652;2023-04-24T05:37:56;10.85;;;5.80;;
69161;SDS011;56269;51.738;21.652;2023-04-24T05:40:22;13.38;;;7.28;;
69161;SDS011;56269;51.738;21.652;2023-04-24T05:42:49;16.53;;;7.07;;
69161;SDS011;56269;51.738;21.652;2023-04-24T05:45:15;12.52;;;6.82;;
69161;SDS011;56269;51.738;21.652;2023-04-24T05:47:42;12.35;;;5.82;;
69161;SDS011;56269;51.738;21.652;2023-04-24T05:50:09;12.30;;;6.25;;
69161;SDS011;56269;51.738;21.652;2023-04-24T05:52:36;12.20;;;6.15;;
69161;SDS011;56269;51.738;21.652;2023-04-24T05:55:02;11.30;;;5.70;;
69161;SDS011;56269;51.738;21.652;2023-04-24T05:57:29;12.32;;;6.90;;
69161;SDS011;56269;51.738;21.652;2023-04-24T05:59:55;13.32;;;6.78;;
69161;SDS011;56269;51.738;21.652;2023-04-24T06:02:22;14.75;;;7.50;;
69161;SDS011;56269;51.738;21.652;2023-04-24T06:04:48;15.05;;;7.55;;
69161;SDS011;56269;51.738;21.652;2023-04-24T06:07:14;13.43;;;7.53;;
69161;SDS011;56269;51.738;21.652;2023-04-24T06:09:40;13.85;;;7.07;;
69161;SDS011;56269;51.738;21.652;2023-04-24T06:12:07;12.25;;;6.40;;
69161;SDS011;56269;51.738;21.652;2023-04-24T06:14:34;12.93;;;6.03;;
69161;SDS011;56269;51.738;21.652;2023-04-24T06:17:00;14.68;;;6.97;;
69161;SDS011;56269;51.738;21.652;2023-04-24T06:19:26;12.37;;;6.70;;
69161;SDS011;56269;51.738;21.652;2023-04-24T06:21:53;15.38;;;7.30;;
69161;SDS011;56269;51.738;21.652;2023-04-24T06:24:19;11.35;;;5.72;;
69161;SDS011;56269;51.738;21.652;2023-04-24T06:26:45;11.63;;;6.78;;
69161;SDS011;56269;51.738;21.652;2023-04-24T06:29:11;13.25;;;6.70;;
69161;SDS011;56269;51.738;21.652;2023-04-24T06:31:39;12.63;;;7.47;;
69161;SDS011;56269;51.738;21.652;2023-04-24T06:34:06;12.55;;;6.32;;
69161;SDS011;56269;51.738;21.652;2023-04-24T06:36:32;13.52;;;7.15;;
69161;SDS011;56269;51.738;21.652;2023-04-24T06:39:00;12.93;;;7.43;;
69161;SDS011;56269;51.738;21.652;2023-04-24T06:41:26;13.77;;;7.10;;
69161;SDS011;56269;51.738;21.652;2023-04-24T06:43:52;13.97;;;7.47;;
69161;SDS011;56269;51.738;21.652;2023-04-24T06:46:18;12.30;;;6.93;;
69161;SDS011;56269;51.738;21.652;2023-04-24T06:48:47;14.93;;;7.00;;
69161;SDS011;56269;51.738;21.652;2023-04-24T06:51:13;19.63;;;7.50;;
69161;SDS011;56269;51.738;21.652;2023-04-24T06:53:40;10.65;;;5.82;;
69161;SDS011;56269;51.738;21.652;2023-04-24T06:56:06;13.17;;;7.00;;
69161;SDS011;56269;51.738;21.652;2023-04-24T06:58:32;12.10;;;6.65;;
69161;SDS011;56269;51.738;21.652;2023-04-24T07:01:00;12.55;;;6.10;;
69161;SDS011;56269;51.738;21.652;2023-04-24T07:03:26;11.90;;;6.95;;
69161;SDS011;56269;51.738;21.652;2023-04-24T07:05:53;12.90;;;7.60;;
69161;SDS011;56269;51.738;21.652;2023-04-24T07:08:20;10.80;;;6.60;;
69161;SDS011;56269;51.738;21.652;2023-04-24T07:10:48;13.20;;;7.30;;
69161;SDS011;56269;51.738;21.652;2023-04-24T07:13:14;14.38;;;7.03;;
69161;SDS011;56269;51.738;21.652;2023-04-24T07:15:41;12.65;;;6.78;;
69161;SDS011;56269;51.738;21.652;2023-04-24T07:18:07;14.80;;;8.15;;
69161;SDS011;56269;51.738;21.652;2023-04-24T07:20:34;14.07;;;7.47;;
69161;SDS011;56269;51.738;21.652;2023-04-24T07:23:00;13.60;;;7.40;;
69161;SDS011;56269;51.738;21.652;2023-04-24T07:25:27;12.95;;;7.68;;
69161;SDS011;56269;51.738;21.652;2023-04-24T07:27:54;12.82;;;7.05;;
69161;SDS011;56269;51.738;21.652;2023-04-24T07:30:20;13.05;;;7.68;;
69161;SDS011;56269;51.738;21.652;2023-04-24T07:32:46;13.03;;;6.70;;
69161;SDS011;56269;51.738;21.652;2023-04-24T07:35:12;12.65;;;7.07;;
69161;SDS011;56269;51.738;21.652;2023-04-24T07:37:38;12.43;;;7.45;;
69161;SDS011;56269;51.738;21.652;2023-04-24T07:40:05;12.75;;;7.30;;
69161;SDS011;56269;51.738;21.652;2023-04-24T07:42:31;13.18;;;7.13;;
69161;SDS011;56269;51.738;21.652;2023-04-24T07:45:00;14.40;;;7.33;;
69161;SDS011;56269;51.738;21.652;2023-04-24T07:47:26;13.43;;;7.88;;
69161;SDS011;56269;51.738;21.652;2023-04-24T07:49:52;9.57;;;5.53;;
69161;SDS011;56269;51.738;21.652;2023-04-24T07:52:19;11.43;;;6.60;;
69161;SDS011;56269;51.738;21.652;2023-04-24T07:54:45;11.68;;;7.13;;
69161;SDS011;56269;51.738;21.652;2023-04-24T07:57:11;11.87;;;5.50;;
69161;SDS011;56269;51.738;21.652;2023-04-24T07:59:38;11.95;;;7.30;;
69161;SDS011;56269;51.738;21.652;2023-04-24T08:02:04;10.82;;;5.65;;
69161;SDS011;56269;51.738;21.652;2023-04-24T08:04:32;11.13;;;5.82;;
69161;SDS011;56269;51.738;21.652;2023-04-24T08:06:58;10.27;;;5.05;;
69161;SDS011;56269;51.738;21.652;2023-04-24T08:09:24;11.10;;;6.07;;
69161;SDS011;56269;51.738;21.652;2023-04-24T08:11:50;12.43;;;6.95;;
69161;SDS011;56269;51.738;21.652;2023-04-24T08:14:16;11.95;;;6.57;;
69161;SDS011;56269;51.738;21.652;2023-04-24T08:16:42;11.38;;;6.40;;
69161;SDS011;56269;51.738;21.652;2023-04-24T08:19:09;12.23;;;6.22;;
69161;SDS011;56269;51.738;21.652;2023-04-24T08:21:35;12.77;;;6.60;;
69161;SDS011;56269;51.738;21.652;2023-04-24T08:24:01;12.10;;;5.32;;
69161;SDS011;56269;51.738;21.652;2023-04-24T08:26:30;11.07;;;5.30;;
69161;SDS011;56269;51.738;21.652;2023-04-24T08:28:57;10.70;;;6.47;;
69161;SDS011;56269;51.738;21.652;2023-04-24T08:31:23;11.32;;;6.07;;
69161;SDS011;56269;51.738;21.652;2023-04-24T08:33:51;9.43;;;5.40;;
69161;SDS011;56269;51.738;21.652;2023-04-24T08:36:17;11.15;;;6.25;;
69161;SDS011;56269;51.738;21.652;2023-04-24T08:38:44;10.38;;;5.25;;
69161;SDS011;56269;51.738;21.652;2023-04-24T08:41:11;9.35;;;5.50;;
69161;SDS011;56269;51.738;21.652;2023-04-24T08:43:41;11.70;;;5.53;;
69161;SDS011;56269;51.738;21.652;2023-04-24T08:46:08;9.70;;;5.10;;
69161;SDS011;56269;51.738;21.652;2023-04-24T08:48:36;9.95;;;5.82;;
69161;SDS011;56269;51.738;21.652;2023-04-24T08:51:03;9.70;;;4.22;;
69161;SDS011;56269;51.738;21.652;2023-04-24T08:53:33;10.63;;;5.70;;
69161;SDS011;56269;51.738;21.652;2023-04-24T08:56:01;11.70;;;6.05;;
69161;SDS011;56269;51.738;21.652;2023-04-24T08:58:28;10.73;;;5.70;;
69161;SDS011;56269;51.738;21.652;2023-04-24T09:00:56;12.75;;;5.28;;
69161;SDS011;56269;51.738;21.652;2023-04-24T09:03:23;9.98;;;5.57;;
69161;SDS011;56269;51.738;21.652;2023-04-24T09:05:50;13.68;;;4.97;;
69161;SDS011;56269;51.738;21.652;2023-04-24T09:08:18;10.82;;;6.10;;
69161;SDS011;56269;51.738;21.652;2023-04-24T09:10:45;10.23;;;5.83;;
69161;SDS011;56269;51.738;21.652;2023-04-24T09:13:12;9.98;;;5.93;;
69161;SDS011;56269;51.738;21.652;2023-04-24T09:15:39;10.25;;;5.38;;
69161;SDS011;56269;51.738;21.652;2023-04-24T09:18:07;11.27;;;5.55;;
69161;SDS011;56269;51.738;21.652;2023-04-24T09:20:33;10.60;;;4.97;;
69161;SDS011;56269;51.738;21.652;2023-04-24T09:23:01;11.80;;;5.50;;
69161;SDS011;56269;51.738;21.652;2023-04-24T09:25:34;9.63;;;5.45;;
69161;SDS011;56269;51.738;21.652;2023-04-24T09:28:04;11.43;;;5.55;;
69161;SDS011;56269;51.738;21.652;2023-04-24T09:30:32;8.95;;;5.35;;
69161;SDS011;56269;51.738;21.652;2023-04-24T09:33:14;15.82;;;5.88;;
69161;SDS011;56269;51.738;21.652;2023-04-24T09:35:50;9.90;;;5.70;;
69161;SDS011;56269;51.738;21.652;2023-04-24T09:38:19;10.93;;;5.50;;
69161;SDS011;56269;51.738;21.652;2023-04-24T09:40:57;9.57;;;5.65;;
69161;SDS011;56269;51.738;21.652;2023-04-24T09:43:26;10.43;;;5.70;;
69161;SDS011;56269;51.738;21.652;2023-04-24T09:45:55;9.57;;;5.25;;
69161;SDS011;56269;51.738;21.652;2023-04-24T09:48:31;12.40;;;5.90;;
69161;SDS011;56269;51.738;21.652;2023-04-24T09:50:59;12.07;;;6.45;;
69161;SDS011;56269;51.738;21.652;2023-04-24T09:53:27;10.40;;;5.00;;
69161;SDS011;56269;51.738;21.652;2023-04-24T09:55:53;9.52;;;5.78;;
69161;SDS011;56269;51.738;21.652;2023-04-24T09:58:26;12.63;;;6.38;;
69161;SDS011;56269;51.738;21.652;2023-04-24T10:00:55;10.13;;;5.77;;
69161;SDS011;56269;51.738;21.652;2023-04-24T10:03:25;10.50;;;5.70;;
69161;SDS011;56269;51.738;21.652;2023-04-24T10:05:57;11.90;;;6.10;;
69161;SDS011;56269;51.738;21.652;2023-04-24T10:08:25;12.25;;;6.07;;
69161;SDS011;56269;51.738;21.652;2023-04-24T10:10:52;11.85;;;6.18;;
69161;SDS011;56269;51.738;21.652;2023-04-24T10:13:18;10.37;;;6.30;;
69161;SDS011;56269;51.738;21.652;2023-04-24T10:15:45;10.75;;;6.22;;
69161;SDS011;56269;51.738;21.652;2023-04-24T10:18:13;12.05;;;5.82;;
69161;SDS011;56269;51.738;21.652;2023-04-24T10:20:41;10.00;;;5.50;;
69161;SDS011;56269;51.738;21.652;2023-04-24T10:23:08;11.13;;;6.13;;
69161;SDS011;56269;51.738;21.652;2023-04-24T10:25:35;11.27;;;5.93;;
69161;SDS011;56269;51.738;21.652;2023-04-24T10:28:05;10.57;;;5.82;;
69161;SDS011;56269;51.738;21.652;2023-04-24T10:30:34;10.52;;;5.63;;
69161;SDS011;56269;51.738;21.652;2023-04-24T10:33:03;10.05;;;5.88;;
69161;SDS011;56269;51.738;21.652;2023-04-24T10:35:31;9.45;;;5.38;;
69161;SDS011;56269;51.738;21.652;2023-04-24T10:38:06;8.20;;;4.60;;
69161;SDS011;56269;51.738;21.652;2023-04-24T10:40:36;10.95;;;5.60;;
69161;SDS011;56269;51.738;21.652;2023-04-24T10:43:04;15.50;;;6.00;;
69161;SDS011;56269;51.738;21.652;2023-04-24T10:45:35;10.77;;;5.60;;
69161;SDS011;56269;51.738;21.652;2023-04-24T10:48:05;10.50;;;5.70;;
69161;SDS011;56269;51.738;21.652;2023-04-24T10:51:12;12.97;;;6.40;;
69161;SDS011;56269;51.738;21.652;2023-04-24T10:53:36;11.63;;;5.50;;
69161;SDS011;56269;51.738;21.652;2023-04-24T10:56:04;10.32;;;5.95;;
69161;SDS011;56269;51.738;21.652;2023-04-24T10:58:36;9.65;;;5.30;;
69161;SDS011;56269;51.738;21.652;2023-04-24T11:01:05;11.60;;;5.22;;
69161;SDS011;56269;51.738;21.652;2023-04-24T11:03:32;9.30;;;5.30;;
69161;SDS011;56269;51.738;21.652;2023-04-24T11:06:06;8.70;;;5.07;;
69161;SDS011;56269;51.738;21.652;2023-04-24T11:08:44;11.13;;;4.95;;
69161;SDS011;56269;51.738;21.652;2023-04-24T11:16:26;9.37;;;4.43;;
69161;SDS011;56269;51.738;21.652;2023-04-24T11:24:29;11.13;;;5.18;;
69161;SDS011;56269;51.738;21.652;2023-04-24T11:26:58;9.65;;;5.28;;
69161;SDS011;56269;51.738;21.652;2023-04-24T11:29:59;7.43;;;4.50;;
69161;SDS011;56269;51.738;21.652;2023-04-24T11:32:38;9.10;;;5.10;;
69161;SDS011;56269;51.738;21.652;2023-04-24T11:35:19;8.77;;;4.95;;
69161;SDS011;56269;51.738;21.652;2023-04-24T11:37:48;11.05;;;4.93;;
69161;SDS011;56269;51.738;21.652;2023-04-24T11:40:17;8.45;;;4.78;;
69161;SDS011;56269;51.738;21.652;2023-04-24T11:42:49;9.63;;;4.90;;
69161;SDS011;56269;51.738;21.652;2023-04-24T11:45:29;9.20;;;4.90;;
69161;SDS011;56269;51.738;21.652;2023-04-24T11:47:56;9.93;;;4.53;;
69161;SDS011;56269;51.738;21.652;2023-04-24T11:50:23;10.00;;;4.68;;
69161;SDS011;56269;51.738;21.652;2023-04-24T11:52:52;10.65;;;4.57;;
69161;SDS011;56269;51.738;21.652;2023-04-24T11:57:45;9.35;;;5.15;;
69161;SDS011;56269;51.738;21.652;2023-04-24T12:00:16;9.07;;;4.40;;
69161;SDS011;56269;51.738;21.652;2023-04-24T12:02:44;7.72;;;4.80;;
69161;SDS011;56269;51.738;21.652;2023-04-24T12:05:21;7.95;;;4.28;;
69161;SDS011;56269;51.738;21.652;2023-04-24T12:07:48;13.03;;;5.40;;
69161;SDS011;56269;51.738;21.652;2023-04-24T12:10:19;9.20;;;4.82;;
69161;SDS011;56269;51.738;21.652;2023-04-24T12:12:49;8.95;;;4.90;;
69161;SDS011;56269;51.738;21.652;2023-04-24T12:15:17;9.98;;;4.53;;
69161;SDS011;56269;51.738;21.652;2023-04-24T12:17:44;9.95;;;4.70;;
69161;SDS011;56269;51.738;21.652;2023-04-24T12:20:12;8.67;;;3.90;;
69161;SDS011;56269;51.738;21.652;2023-04-24T12:22:49;7.40;;;3.78;;
69161;SDS011;56269;51.738;21.652;2023-04-24T12:25:17;7.78;;;4.20;;
69161;SDS011;56269;51.738;21.652;2023-04-24T12:27:44;8.38;;;4.90;;
69161;SDS011;56269;51.738;21.652;2023-04-24T12:30:13;7.68;;;4.22;;
69161;SDS011;56269;51.738;21.652;2023-04-24T12:32:42;10.93;;;4.30;;
69161;SDS011;56269;51.738;21.652;2023-04-24T12:35:10;8.15;;;4.50;;
69161;SDS011;56269;51.738;21.652;2023-04-24T12:37:36;8.27;;;4.78;;
69161;SDS011;56269;51.738;21.652;2023-04-24T12:40:11;11.10;;;5.20;;
69161;SDS011;56269;51.738;21.652;2023-04-24T12:42:56;8.60;;;5.00;;
69161;SDS011;56269;51.738;21.652;2023-04-24T12:45:23;8.67;;;4.67;;
69161;SDS011;56269;51.738;21.652;2023-04-24T12:47:50;12.30;;;3.90;;
69161;SDS011;56269;51.738;21.652;2023-04-24T12:50:17;10.70;;;4.45;;
69161;SDS011;56269;51.738;21.652;2023-04-24T12:52:43;8.77;;;4.80;;
69161;SDS011;56269;51.738;21.652;2023-04-24T12:55:10;9.80;;;5.05;;
69161;SDS011;56269;51.738;21.652;2023-04-24T12:57:38;10.23;;;4.83;;
69161;SDS011;56269;51.738;21.652;2023-04-24T13:00:05;8.95;;;4.22;;
69161;SDS011;56269;51.738;21.652;2023-04-24T13:02:32;7.60;;;4.22;;
69161;SDS011;56269;51.738;21.652;2023-04-24T13:05:00;7.85;;;4.35;;
69161;SDS011;56269;51.738;21.652;2023-04-24T13:07:26;9.40;;;4.53;;
69161;SDS011;56269;51.738;21.652;2023-04-24T13:09:53;8.83;;;4.60;;
69161;SDS011;56269;51.738;21.652;2023-04-24T13:12:20;8.95;;;3.80;;
69161;SDS011;56269;51.738;21.652;2023-04-24T13:14:47;7.78;;;4.03;;
69161;SDS011;56269;51.738;21.652;2023-04-24T13:17:13;7.50;;;3.80;;
69161;SDS011;56269;51.738;21.652;2023-04-24T13:19:41;9.05;;;3.70;;
69161;SDS011;56269;51.738;21.652;2023-04-24T13:22:09;8.00;;;3.40;;
69161;SDS011;56269;51.738;21.652;2023-04-24T13:24:36;7.65;;;3.90;;
69161;SDS011;56269;51.738;21.652;2023-04-24T13:27:03;6.72;;;3.67;;
69161;SDS011;56269;51.738;21.652;2023-04-24T13:29:30;7.45;;;3.67;;
69161;SDS011;56269;51.738;21.652;2023-04-24T13:31:56;6.68;;;3.58;;
69161;SDS011;56269;51.738;21.652;2023-04-24T13:34:23;8.13;;;4.27;;
69161;SDS011;56269;51.738;21.652;2023-04-24T13:36:54;8.52;;;3.70;;
69161;SDS011;56269;51.738;21.652;2023-04-24T13:39:22;8.52;;;3.28;;
69161;SDS011;56269;51.738;21.652;2023-04-24T13:41:49;8.68;;;3.72;;
69161;SDS011;56269;51.738;21.652;2023-04-24T13:44:16;7.47;;;3.42;;
69161;SDS011;56269;51.738;21.652;2023-04-24T13:46:44;9.67;;;4.33;;
69161;SDS011;56269;51.738;21.652;2023-04-24T13:49:11;7.55;;;4.10;;
69161;SDS011;56269;51.738;21.652;2023-04-24T13:51:38;6.40;;;3.40;;
69161;SDS011;56269;51.738;21.652;2023-04-24T13:54:05;7.57;;;4.07;;
69161;SDS011;56269;51.738;21.652;2023-04-24T13:56:32;7.97;;;3.80;;
69161;SDS011;56269;51.738;21.652;2023-04-24T13:58:58;6.67;;;3.37;;
69161;SDS011;56269;51.738;21.652;2023-04-24T14:01:24;7.68;;;3.55;;
69161;SDS011;56269;51.738;21.652;2023-04-24T14:03:51;9.30;;;4.07;;
69161;SDS011;56269;51.738;21.652;2023-04-24T14:06:18;8.07;;;3.53;;
69161;SDS011;56269;51.738;21.652;2023-04-24T14:08:45;8.73;;;3.45;;
69161;SDS011;56269;51.738;21.652;2023-04-24T14:11:11;7.13;;;3.40;;
69161;SDS011;56269;51.738;21.652;2023-04-24T14:13:38;10.93;;;4.70;;
69161;SDS011;56269;51.738;21.652;2023-04-24T14:16:06;9.70;;;3.80;;
69161;SDS011;56269;51.738;21.652;2023-04-24T14:18:32;7.57;;;3.92;;
69161;SDS011;56269;51.738;21.652;2023-04-24T14:20:59;9.20;;;4.22;;
69161;SDS011;56269;51.738;21.652;2023-04-24T14:23:27;9.17;;;3.83;;
69161;SDS011;56269;51.738;21.652;2023-04-24T14:25:53;10.75;;;4.65;;
69161;SDS011;56269;51.738;21.652;2023-04-24T14:28:19;8.85;;;4.10;;
69161;SDS011;56269;51.738;21.652;2023-04-24T14:30:46;8.60;;;4.20;;
69161;SDS011;56269;51.738;21.652;2023-04-24T14:33:14;7.15;;;3.80;;
69161;SDS011;56269;51.738;21.652;2023-04-24T14:35:40;7.63;;;3.93;;
69161;SDS011;56269;51.738;21.652;2023-04-24T14:38:10;8.73;;;4.07;;